Casper, WY

3:36 AM MDT on July 29, 2014 (GMT -0600)
North of Casper, WY (KWYBARNU1) Elev 5276 ft | 42.91 °N, 106.35 °W | Change Station

Current weather conditions updated 2 minutes ago

Clear
Clear
62.4 °F
Feels Like 62.4 °F
N
0.0
Wind Variable Wind from NNE
Gusts 9.1 mph

Today is forecast to be Much Cooler than yesterday. Thunderstorms.

Today
High -- | Low -- °F
--% Chance of Precip.
Yesterday
High -- | Low -- °F
Precip. -- in
5:53 AM 8:29 PM
Waxing Crescent, 5% visible
Pressure 30.06 in
Visibility 10.0 miles
Clouds Clear
Dew Point 51 °F
Humidity 67%
Rainfall 0.00 in
Snow Depth 1 in
UV 0 out of 12
Pollen 6.00 out of 12
Air Quality Not available.
Flu Activity Not available.
METAR KCPR 290853Z AUTO 03010KT 10SM CLR 17/11 A3028 RMK AO2 SLP178 T01720106 53008

More Conditions Fewer Conditions

Pressure 30.06 in
Visibility 10.0 miles
Clouds Clear
Dew Point 51 °F
Humidity 67%
Rainfall 0.00 in
Snow Depth 1 in
UV 0 out of 12
Pollen 6.00 out of 12
Air Quality Not available.
Flu Activity Not available.
METAR KCPR 290853Z AUTO 03010KT 10SM CLR 17/11 A3028 RMK AO2 SLP178 T01720106 53008

More Conditions Fewer Conditions

10-Day Weather Forecast

Almanac

Astronomy

Jul. 29, 2014 Rise Set
Actual Time 5:53 AM MDT 8:29 PM MDT
Civil Twilight 5:21 AM MDT 9:01 PM MDT
Nautical Twilight 4:40 AM MDT 9:42 PM MDT
Astronomical Twilight 3:54 AM MDT 10:27 PM MDT
Moon 8:37 AM MDT 9:37 PM MDT
Length of Visible Light 15h 40m
Length of Day
14h 35m
Tomorrow will be 2m 8s shorter.
Waxing Crescent, 5% of the Moon is Illuminated
Today
Waxing Crescent
Aug 3
First Quarter
Aug 10
Full
Aug 17
Last Quarter
Aug 25
New

Today's Extremes

State Highs State Lows

Community

WunderPhotos

Upload Photos

1,738,675 photos uploaded!

Nearby

Snow Depth

Station Depth Elevation
Casper Mountain 1 in 7850 ft
Reno Hill 0 in 8500 ft
Grave Springs 1 in 8550 ft
Middle Powder 0 in 7760 ft
Bear Trap Meadow 0 in 8200 ft

Earthquake Activity

City Distance Mag. Time & Date
No recent earthquake activity has been reported nearby.
Minimum magnitude displayed is 2.5.

Coastal Water Temperatures

Place Temperature
No Stations Reporting

Nearby Weather Stations

Station Location Temp. Dew Point Humidity Wind Precip. Elev Updated Type
HADS NORTH PLATTE RIVER AT CASPER WY, Casper, WY 68 °F - - North  at  - 0.00 in / hr 5100 ft 2:30 AM MDT MADIS
North of Casper, WY, Bar Nunn, WY 62.4 °F 51 °F 67% NNE  at  0.0 mph 0.00 in / hr 5276 ft 3:34 AM MDT Normal
North of Rolling Hills WY, Glenrock, WY 59.6 °F 51 °F 73% ENE  at  4.0 mph 0.00 in / hr 5421 ft 3:36 AM MDT Rapid Fire
RAWS CASPER MOUNTAIN WY, Casper, WY 64 °F 50 °F 61% SE  at  6 mph 0.00 in / hr 7740 ft 2:52 AM MDT MADIS

Show More Stations Show Fewer Stations